createdAt,value
2024-01-26T00:02:05.747Z,102077.66
2024-01-26T00:04:32.805Z,102089.22
2024-01-26T00:07:00.051Z,102106.75
2024-01-26T00:09:26.869Z,102120.69
2024-01-26T00:11:53.601Z,102132.09
2024-01-26T00:14:20.265Z,102126.66
2024-01-26T00:16:46.882Z,102143.38
2024-01-26T00:19:14.313Z,102154.09
2024-01-26T00:21:41.174Z,102166.34
2024-01-26T00:24:08.015Z,102171.34
2024-01-26T00:26:34.648Z,102177.47
2024-01-26T00:29:01.460Z,102188.06
2024-01-26T00:31:28.087Z,102191.50
2024-01-26T00:33:54.792Z,102206.44
2024-01-26T00:36:21.542Z,102206.28
2024-01-26T00:38:48.300Z,102212.41
2024-01-26T00:41:14.929Z,102215.88
2024-01-26T00:43:41.521Z,102230.78
2024-01-26T00:46:08.904Z,102229.94
2024-01-26T00:48:37.786Z,102224.66
2024-01-26T00:51:05.102Z,102224.66
2024-01-26T00:53:31.708Z,102231.91
2024-01-26T00:55:58.231Z,102224.50
2024-01-26T00:58:24.827Z,102225.03
2024-01-26T01:00:51.475Z,102227.34
2024-01-26T01:03:18.070Z,102233.66
2024-01-26T01:05:44.719Z,102226.44
2024-01-26T01:08:11.432Z,102225.56
2024-01-26T01:10:38.011Z,102233.38
2024-01-26T01:13:05.829Z,102241.69
2024-01-26T01:15:33.271Z,102233.44
2024-01-26T01:18:00.401Z,102236.47
2024-01-26T01:20:27.235Z,102235.34
2024-01-26T01:22:54.910Z,102224.59
2024-01-26T01:25:22.250Z,102220.63
2024-01-26T01:27:49.476Z,102227.28
2024-01-26T01:30:16.052Z,102228.13
2024-01-26T01:32:42.666Z,102236.88
2024-01-26T01:35:09.613Z,102229.94
2024-01-26T01:37:36.201Z,102231.91
2024-01-26T01:40:02.976Z,102239.00
2024-01-26T01:42:29.546Z,102253.09
2024-01-26T01:44:56.431Z,102252.94
2024-01-26T01:47:23.046Z,102248.16
2024-01-26T01:49:49.959Z,102251.66
2024-01-26T01:52:18.400Z,102256.94
2024-01-26T01:54:45.660Z,102250.19
2024-01-26T01:57:15.442Z,102239.59
2024-01-26T01:59:45.237Z,102234.16
2024-01-26T02:02:12.201Z,102250.53
2024-01-26T02:04:38.865Z,102251.06
2024-01-26T02:07:06.179Z,102275.22
2024-01-26T02:09:33.035Z,102271.13
2024-01-26T02:12:03.055Z,102261.50
2024-01-26T02:14:29.868Z,102249.63
2024-01-26T02:16:57.823Z,102254.78
2024-01-26T02:19:26.479Z,102251.97
2024-01-26T02:21:53.780Z,102264.91
2024-01-26T02:24:20.389Z,102263.94
2024-01-26T02:26:47.456Z,102256.94
2024-01-26T02:29:14.793Z,102254.13
2024-01-26T02:31:41.448Z,102252.16
2024-01-26T02:34:08.437Z,102254.38
2024-01-26T02:36:37.260Z,102244.72
2024-01-26T02:39:06.274Z,102251.72
2024-01-26T02:41:35.420Z,102253.53
2024-01-26T02:44:03.026Z,102249.88
2024-01-26T02:46:29.687Z,102250.41
2024-01-26T02:48:56.675Z,102254.38
2024-01-26T02:51:23.433Z,102249.72
2024-01-26T02:53:50.178Z,102233.22
2024-01-26T02:56:16.950Z,102230.91
2024-01-26T02:58:43.563Z,102221.78
2024-01-26T03:01:10.221Z,102231.44
2024-01-26T03:03:36.888Z,102224.13
2024-01-26T03:06:03.776Z,102215.53
2024-01-26T03:08:31.765Z,102220.66
2024-01-26T03:10:58.367Z,102215.66
2024-01-26T03:13:25.054Z,102219.47
2024-01-26T03:15:53.307Z,102210.03
2024-01-26T03:18:20.401Z,102221.59
2024-01-26T03:20:47.499Z,102220.13
2024-01-26T03:23:14.576Z,102224.94
2024-01-26T03:25:41.807Z,102235.06
2024-01-26T03:28:08.774Z,102218.00
2024-01-26T03:30:35.738Z,102216.00
2024-01-26T03:33:02.921Z,102228.50
2024-01-26T03:35:29.642Z,102239.78
2024-01-26T03:37:56.449Z,102236.28
2024-01-26T03:40:25.442Z,102209.41
2024-01-26T03:42:53.069Z,102220.19
2024-01-26T03:45:20.054Z,102229.94
2024-01-26T03:47:47.065Z,102211.72
2024-01-26T03:50:13.978Z,102219.66
2024-01-26T03:52:40.678Z,102219.81
2024-01-26T03:55:08.649Z,102215.53
2024-01-26T03:57:38.655Z,102217.81
2024-01-26T04:00:07.610Z,102215.78
2024-01-26T04:02:34.538Z,102206.50
2024-01-26T04:05:01.147Z,102206.94
2024-01-26T04:07:27.841Z,102195.84
2024-01-26T04:09:54.516Z,102219.84
2024-01-26T04:12:21.277Z,102201.28
2024-01-26T04:14:47.961Z,102190.84
2024-01-26T04:17:14.586Z,102186.03
2024-01-26T04:19:41.318Z,102173.63
2024-01-26T04:22:07.995Z,102171.63
2024-01-26T04:24:37.428Z,102156.03
2024-01-26T04:27:04.539Z,102154.06
2024-01-26T04:29:31.203Z,102149.63
2024-01-26T04:31:57.876Z,102148.78
2024-01-26T04:34:24.667Z,102139.50
2024-01-26T04:36:52.525Z,102134.19
2024-01-26T04:39:19.228Z,102118.16
2024-01-26T04:41:45.842Z,102124.09
2024-01-26T04:44:12.490Z,102093.28
2024-01-26T04:46:39.082Z,102109.34
2024-01-26T04:49:05.807Z,102099.09
2024-01-26T04:51:32.545Z,102089.44
2024-01-26T04:53:59.148Z,102079.69
2024-01-26T04:56:25.950Z,102073.72
2024-01-26T04:58:52.487Z,102069.25
2024-01-26T05:01:19.237Z,102065.78
2024-01-26T05:03:46.106Z,102054.38
2024-01-26T05:06:13.758Z,102067.63
2024-01-26T05:08:41.706Z,102060.44
2024-01-26T05:11:08.433Z,102053.34
2024-01-26T05:13:35.068Z,102063.94
2024-01-26T05:16:01.834Z,102064.91
2024-01-26T05:18:29.823Z,102059.94
2024-01-26T05:20:56.525Z,102066.22
2024-01-26T05:23:23.123Z,102066.91
2024-01-26T05:25:50.003Z,102059.56
2024-01-26T05:28:16.737Z,102049.97
2024-01-26T05:30:43.465Z,102045.19
2024-01-26T05:33:10.484Z,102028.97
2024-01-26T05:35:37.216Z,102017.06
2024-01-26T05:38:03.941Z,102019.56
2024-01-26T05:40:30.576Z,102015.25
2024-01-26T05:42:57.258Z,102014.91
2024-01-26T05:45:23.950Z,102006.97
2024-01-26T05:47:50.912Z,101997.53
2024-01-26T05:50:17.670Z,102011.75
2024-01-26T05:52:44.283Z,102006.63
2024-01-26T05:55:11.028Z,102006.63
2024-01-26T05:57:37.581Z,101990.22
2024-01-26T06:00:05.168Z,101981.47
2024-01-26T06:02:31.921Z,101994.72
2024-01-26T06:04:58.570Z,101993.72
2024-01-26T06:07:25.232Z,101974.19
2024-01-26T06:09:51.846Z,101970.53
2024-01-26T06:12:18.540Z,101973.19
2024-01-26T06:14:45.192Z,101957.31
2024-01-26T06:17:11.768Z,101953.69
2024-01-26T06:19:39.702Z,101958.31
2024-01-26T06:22:06.519Z,101962.63
2024-01-26T06:24:33.217Z,101961.78
2024-01-26T06:26:59.861Z,101948.69
2024-01-26T06:29:26.512Z,101949.53
2024-01-26T06:31:53.404Z,101950.38
2024-01-26T06:34:20.175Z,101943.56
2024-01-26T06:36:47.277Z,101932.16
2024-01-26T06:39:14.110Z,101928.69
2024-01-26T06:41:44.199Z,101920.41
2024-01-26T06:44:11.093Z,101916.94
2024-01-26T06:46:37.652Z,101921.56
2024-01-26T06:49:04.467Z,101917.91
2024-01-26T06:51:31.243Z,101926.03
2024-01-26T06:53:58.086Z,101928.53
2024-01-26T06:56:24.745Z,101916.63
2024-01-26T06:58:51.635Z,101930.38
2024-01-26T07:01:18.240Z,101934.00
2024-01-26T07:03:45.084Z,101935.66
2024-01-26T07:06:12.018Z,101941.31
2024-01-26T07:08:41.596Z,101953.38
2024-01-26T07:11:10.400Z,101960.19
2024-01-26T07:13:37.026Z,101944.97
2024-01-26T07:16:03.817Z,101960.53
2024-01-26T07:18:30.702Z,101957.38
2024-01-26T07:20:57.777Z,101967.81
2024-01-26T07:23:24.351Z,101974.47
2024-01-26T07:25:50.906Z,101982.06
2024-01-26T07:28:17.461Z,101974.13
2024-01-26T07:30:44.160Z,101967.00
2024-01-26T07:33:11.194Z,101962.66
2024-01-26T07:35:37.960Z,101983.09
2024-01-26T07:38:04.600Z,101988.03
2024-01-26T07:40:31.171Z,101989.84
2024-01-26T07:42:57.862Z,102005.28
2024-01-26T07:45:24.525Z,102012.06
2024-01-26T07:47:53.332Z,102010.94
2024-01-26T07:50:20.018Z,102026.84
2024-01-26T07:52:46.603Z,102040.09
2024-01-26T07:55:13.204Z,102052.03
2024-01-26T07:57:39.884Z,102061.63
2024-01-26T08:00:10.120Z,102077.72
2024-01-26T08:02:36.817Z,102090.97
2024-01-26T08:05:03.591Z,102128.44
2024-01-26T08:07:30.249Z,102130.09
2024-01-26T08:09:57.098Z,102151.28
2024-01-26T08:12:30.269Z,102151.28
2024-01-26T08:15:09.923Z,102162.38
2024-01-26T08:17:38.214Z,102167.31
2024-01-26T08:20:05.576Z,102174.44
2024-01-26T08:22:33.175Z,102172.44
2024-01-26T08:25:00.007Z,102193.59
2024-01-26T08:27:26.768Z,102199.31
2024-01-26T08:29:53.908Z,102212.69
2024-01-26T08:32:20.716Z,102231.25
2024-01-26T08:34:47.576Z,102234.38
2024-01-26T08:37:14.690Z,102244.59
2024-01-26T08:39:44.821Z,102272.06
2024-01-26T08:42:11.854Z,102285.47
2024-01-26T08:44:38.526Z,102291.06
2024-01-26T08:47:05.422Z,102307.13
2024-01-26T08:49:32.027Z,102335.03
2024-01-26T08:52:02.477Z,102343.75
2024-01-26T08:54:29.574Z,102357.75
2024-01-26T08:56:57.437Z,102388.97
2024-01-26T08:59:24.081Z,102404.63
2024-01-26T09:01:50.812Z,102420.78
2024-01-26T09:04:17.646Z,102429.03
2024-01-26T09:06:45.574Z,102443.13
2024-01-26T09:09:13.491Z,102455.63
2024-01-26T09:11:40.251Z,102468.19
2024-01-26T09:14:06.915Z,102470.69
2024-01-26T09:16:33.535Z,102480.16
2024-01-26T09:19:02.957Z,102484.03
2024-01-26T09:21:30.573Z,102488.81
2024-01-26T09:23:57.393Z,102488.56
2024-01-26T09:26:24.096Z,102501.34
2024-01-26T09:28:50.654Z,102518.88
2024-01-26T09:31:17.872Z,102537.59
2024-01-26T09:33:44.527Z,102544.41
2024-01-26T09:36:11.361Z,102574.91
2024-01-26T09:38:38.101Z,102589.63
2024-01-26T09:41:05.143Z,102609.41
2024-01-26T09:43:31.870Z,102618.22
2024-01-26T09:45:58.634Z,102620.56
2024-01-26T09:48:25.802Z,102645.28
2024-01-26T09:50:53.875Z,102669.69
2024-01-26T09:53:20.609Z,102690.03
2024-01-26T09:55:48.441Z,102710.91
2024-01-26T09:58:16.281Z,102729.75
2024-01-26T10:00:43.946Z,102767.13
2024-01-26T10:03:10.619Z,102768.34
2024-01-26T10:05:40.375Z,102783.69
2024-01-26T10:08:12.078Z,102798.75
2024-01-26T10:10:38.763Z,102822.31
2024-01-26T10:13:07.321Z,102822.97
2024-01-26T10:15:34.608Z,102844.38
2024-01-26T10:18:02.507Z,102862.31
2024-01-26T10:20:29.488Z,102859.75
2024-01-26T10:22:56.870Z,102861.13
2024-01-26T10:25:24.110Z,102885.47
2024-01-26T10:27:51.012Z,102892.19
2024-01-26T10:30:20.627Z,102899.13
2024-01-26T10:32:48.642Z,102912.09
2024-01-26T10:35:18.120Z,102934.41
2024-01-26T10:37:46.564Z,102937.63
2024-01-26T10:40:17.068Z,102948.50
2024-01-26T10:42:46.365Z,102962.78
2024-01-26T10:45:14.322Z,102969.88
2024-01-26T10:47:42.368Z,102979.78
2024-01-26T10:50:11.729Z,102980.88
2024-01-26T10:52:39.609Z,102984.25
2024-01-26T10:55:07.616Z,102997.50
2024-01-26T10:57:34.397Z,103015.66
2024-01-26T11:00:02.089Z,103011.19
2024-01-26T11:02:32.911Z,103015.47
2024-01-26T11:05:00.119Z,103028.13
2024-01-26T11:07:27.534Z,103028.28
2024-01-26T11:10:01.313Z,103003.47
2024-01-26T11:12:28.044Z,103034.84
2024-01-26T11:15:07.659Z,103030.91
2024-01-26T11:17:50.601Z,103035.44
2024-01-26T11:20:22.930Z,103045.53
2024-01-26T11:23:10.886Z,103053.91
2024-01-26T11:25:44.610Z,103059.97
2024-01-26T11:28:12.894Z,103073.78
2024-01-26T11:30:40.830Z,103069.84
2024-01-26T11:33:17.876Z,103078.69
2024-01-26T11:35:45.171Z,103074.16
2024-01-26T11:38:12.659Z,103073.53
2024-01-26T11:40:40.072Z,103088.25
2024-01-26T11:43:06.747Z,103093.72
2024-01-26T11:45:43.266Z,103107.81
2024-01-26T11:48:11.386Z,103103.66
2024-01-26T11:50:39.232Z,103117.66
2024-01-26T11:53:06.944Z,103123.00
2024-01-26T11:55:34.253Z,103130.44
2024-01-26T11:58:02.791Z,103139.09
2024-01-26T12:00:32.775Z,103138.34
2024-01-26T12:03:00.438Z,103153.19
2024-01-26T12:05:27.760Z,103156.97
2024-01-26T12:07:55.388Z,103157.09
2024-01-26T12:10:22.960Z,103167.47
2024-01-26T12:12:50.832Z,103181.81
2024-01-26T12:15:18.019Z,103174.13
2024-01-26T12:17:47.914Z,103188.84
2024-01-26T12:20:14.970Z,103173.72
2024-01-26T12:22:43.887Z,103181.28
2024-01-26T12:25:14.663Z,103207.44
2024-01-26T12:27:43.120Z,103199.34
2024-01-26T12:30:13.114Z,103198.91
2024-01-26T12:32:40.342Z,103212.91
2024-01-26T12:35:07.291Z,103211.19
2024-01-26T12:37:34.036Z,103216.66
2024-01-26T12:40:00.969Z,103219.72
2024-01-26T12:42:27.570Z,103220.56
2024-01-26T12:44:56.023Z,103230.50
2024-01-26T12:47:26.269Z,103233.28
2024-01-26T12:49:53.294Z,103227.69
2024-01-26T12:52:20.053Z,103233.38
2024-01-26T12:54:46.654Z,103238.91
2024-01-26T12:57:13.897Z,103250.38
2024-01-26T12:59:41.155Z,103245.53
2024-01-26T13:02:08.588Z,103263.13
2024-01-26T13:04:35.363Z,103254.72
2024-01-26T13:07:02.613Z,103261.03
2024-01-26T13:09:29.480Z,103259.03
2024-01-26T13:11:58.599Z,103275.53
2024-01-26T13:14:26.412Z,103270.00
2024-01-26T13:16:53.450Z,103274.31
2024-01-26T13:19:20.720Z,103272.66
2024-01-26T13:21:49.830Z,103272.31
2024-01-26T13:24:18.270Z,103286.63
2024-01-26T13:26:46.081Z,103302.66
2024-01-26T13:29:13.130Z,103293.00
2024-01-26T13:31:40.010Z,103298.47
2024-01-26T13:34:07.629Z,103297.06
2024-01-26T13:36:34.352Z,103296.56
2024-01-26T13:39:01.009Z,103308.25
2024-01-26T13:41:27.659Z,103305.41
2024-01-26T13:43:54.304Z,103312.53
2024-01-26T13:46:20.860Z,103318.69
2024-01-26T13:48:47.756Z,103317.94
2024-01-26T13:51:14.422Z,103327.91
2024-01-26T13:53:41.131Z,103327.66
2024-01-26T13:56:07.789Z,103337.56
2024-01-26T13:58:34.372Z,103352.00
2024-01-26T14:01:01.229Z,103344.50
2024-01-26T14:03:28.091Z,103355.31
2024-01-26T14:05:55.006Z,103361.56
2024-01-26T14:08:21.699Z,103364.78
2024-01-26T14:10:48.335Z,103370.19
2024-01-26T14:13:14.984Z,103372.69
2024-01-26T14:15:41.575Z,103373.88
2024-01-26T14:18:08.316Z,103379.66
2024-01-26T14:20:36.821Z,103384.41
2024-01-26T14:23:04.480Z,103376.63
2024-01-26T14:25:32.906Z,103392.84
2024-01-26T14:28:04.340Z,103403.69
2024-01-26T14:30:32.860Z,103398.94
2024-01-26T14:32:59.762Z,103409.59
2024-01-26T14:35:26.428Z,103409.22
2024-01-26T14:37:53.085Z,103406.81
2024-01-26T14:40:19.792Z,103414.34
2024-01-26T14:42:48.080Z,103412.41
2024-01-26T14:45:15.187Z,103413.50
2024-01-26T14:47:42.329Z,103417.09
2024-01-26T14:50:10.742Z,103413.13
2024-01-26T14:52:41.260Z,103430.97
2024-01-26T14:55:09.451Z,103447.34
2024-01-26T14:57:37.400Z,103454.34
2024-01-26T15:00:08.141Z,103447.97
2024-01-26T15:02:38.217Z,103454.56
2024-01-26T15:05:05.641Z,103471.28
2024-01-26T15:07:36.174Z,103466.16
2024-01-26T15:10:05.484Z,103482.28
2024-01-26T15:12:32.149Z,103485.47
2024-01-26T15:14:58.744Z,103493.06
2024-01-26T15:17:25.454Z,103492.66
2024-01-26T15:19:53.740Z,103505.31
2024-01-26T15:22:20.446Z,103507.53
2024-01-26T15:24:47.063Z,103510.78
2024-01-26T15:27:13.778Z,103521.00
2024-01-26T15:29:40.451Z,103521.34
2024-01-26T15:32:07.408Z,103531.34
2024-01-26T15:34:36.401Z,103533.94
2024-01-26T15:37:07.056Z,103536.78
2024-01-26T15:39:33.811Z,103538.53
2024-01-26T15:42:00.593Z,103539.56
2024-01-26T15:44:27.258Z,103550.00
2024-01-26T15:46:53.852Z,103558.50
2024-01-26T15:49:20.953Z,103557.72
2024-01-26T15:51:47.567Z,103558.50
2024-01-26T15:54:14.302Z,103558.59
2024-01-26T15:56:41.074Z,103561.91
2024-01-26T15:59:07.612Z,103574.81
2024-01-26T16:01:34.257Z,103582.59
2024-01-26T16:04:00.913Z,103585.72
2024-01-26T16:06:27.607Z,103591.25
2024-01-26T16:08:54.267Z,103594.78
2024-01-26T16:11:20.974Z,103597.03
2024-01-26T16:13:48.792Z,103597.41
2024-01-26T16:16:17.041Z,103594.19
2024-01-26T16:18:45.604Z,103593.13
2024-01-26T16:21:12.814Z,103592.22
2024-01-26T16:23:39.493Z,103600.38
2024-01-26T16:26:06.132Z,103607.00
2024-01-26T16:28:32.781Z,103605.00
2024-01-26T16:30:59.328Z,103612.22
2024-01-26T16:33:26.071Z,103620.59
2024-01-26T16:35:53.040Z,103613.16
2024-01-26T16:38:19.657Z,103616.88
2024-01-26T16:40:46.423Z,103613.34
2024-01-26T16:43:14.184Z,103618.91
2024-01-26T16:45:41.051Z,103627.22
2024-01-26T16:48:07.929Z,103622.44
2024-01-26T16:50:34.774Z,103635.66
2024-01-26T16:53:01.447Z,103631.59
2024-01-26T16:55:30.344Z,103630.44
2024-01-26T16:57:58.294Z,103636.94
2024-01-26T17:00:25.570Z,103644.22
2024-01-26T17:02:54.716Z,103651.41
2024-01-26T17:05:21.371Z,103641.34
2024-01-26T17:07:47.940Z,103653.34
2024-01-26T17:10:14.924Z,103650.38
2024-01-26T17:12:41.562Z,103662.88
2024-01-26T17:15:08.568Z,103674.63
2024-01-26T17:17:35.332Z,103667.16
2024-01-26T17:20:02.048Z,103667.25
2024-01-26T17:22:28.965Z,103671.50
2024-01-26T17:24:55.540Z,103684.75
2024-01-26T17:27:22.156Z,103682.38
2024-01-26T17:29:48.886Z,103682.69
2024-01-26T17:32:15.571Z,103700.88
2024-01-26T17:34:44.134Z,103690.16
2024-01-26T17:37:11.029Z,103695.13
2024-01-26T17:39:47.999Z,103700.47
2024-01-26T17:42:23.325Z,103698.78
2024-01-26T17:44:50.398Z,103707.53
2024-01-26T17:47:17.637Z,103708.16
2024-01-26T17:49:44.412Z,103712.19
2024-01-26T17:52:11.194Z,103725.44
2024-01-26T17:54:37.728Z,103720.38
2024-01-26T17:57:07.736Z,103716.81
2024-01-26T17:59:34.381Z,103720.44
2024-01-26T18:02:01.090Z,103720.56
2024-01-26T18:04:27.750Z,103729.34
2024-01-26T18:06:54.386Z,103734.19
2024-01-26T18:09:21.702Z,103733.56
2024-01-26T18:11:48.670Z,103737.59
2024-01-26T18:14:15.435Z,103740.50
2024-01-26T18:16:41.999Z,103747.00
2024-01-26T18:19:08.742Z,103744.75
2024-01-26T18:21:35.934Z,103748.22
2024-01-26T18:24:02.543Z,103760.47
2024-01-26T18:26:29.136Z,103760.53
2024-01-26T18:28:55.680Z,103765.75
2024-01-26T18:31:22.253Z,103765.22
2024-01-26T18:33:49.313Z,103772.63
2024-01-26T18:36:16.223Z,103781.91
2024-01-26T18:38:44.799Z,103783.19
2024-01-26T18:41:24.823Z,103780.13
2024-01-26T18:43:54.044Z,103778.84
2024-01-26T18:46:22.077Z,103776.22
2024-01-26T18:48:49.193Z,103773.25
2024-01-26T18:51:16.210Z,103787.78
2024-01-26T18:53:42.895Z,103779.66
2024-01-26T18:56:09.687Z,103787.00
2024-01-26T18:58:36.667Z,103792.44
2024-01-26T19:01:03.651Z,103799.97
2024-01-26T19:03:30.605Z,103805.84
2024-01-26T19:05:57.850Z,103811.34
2024-01-26T19:08:24.757Z,103819.56
2024-01-26T19:10:51.775Z,103822.28
2024-01-26T19:13:18.492Z,103819.97
2024-01-26T19:15:46.891Z,103821.84
2024-01-26T19:18:16.959Z,103823.97
2024-01-26T19:20:44.334Z,103822.66
2024-01-26T19:23:11.400Z,103821.28
2024-01-26T19:25:40.516Z,103829.56
2024-01-26T19:28:07.348Z,103841.03
2024-01-26T19:30:37.025Z,103834.56
2024-01-26T19:33:07.330Z,103838.09
2024-01-26T19:35:34.174Z,103848.06
2024-01-26T19:38:00.730Z,103848.31
2024-01-26T19:40:27.454Z,103854.38
2024-01-26T19:42:54.009Z,103847.31
2024-01-26T19:45:22.216Z,103844.34
2024-01-26T19:47:49.529Z,103841.22
2024-01-26T19:50:16.730Z,103841.97
2024-01-26T19:52:46.550Z,103822.06
2024-01-26T19:55:14.046Z,103827.00
2024-01-26T19:57:41.460Z,103831.38
2024-01-26T20:00:12.540Z,103828.06
2024-01-26T20:02:39.144Z,103825.72
2024-01-26T20:05:06.278Z,103835.91
2024-01-26T20:07:33.214Z,103832.06
2024-01-26T20:10:00.590Z,103844.28
2024-01-26T20:12:28.260Z,103833.81
2024-01-26T20:14:56.096Z,103819.50
2024-01-26T20:17:25.120Z,103816.00
2024-01-26T20:19:51.998Z,103822.06
2024-01-26T20:22:19.545Z,103811.16
2024-01-26T20:24:46.721Z,103815.81
2024-01-26T20:27:13.549Z,103816.84
2024-01-26T20:29:40.502Z,103817.38
2024-01-26T20:32:07.811Z,103821.75
2024-01-26T20:34:34.551Z,103827.22
2024-01-26T20:37:02.169Z,103826.72
2024-01-26T20:39:29.030Z,103826.38
2024-01-26T20:41:56.549Z,103811.34
2024-01-26T20:44:23.564Z,103821.63
2024-01-26T20:46:50.635Z,103824.03
2024-01-26T20:49:17.658Z,103822.88
2024-01-26T20:51:44.421Z,103825.66
2024-01-26T20:54:11.101Z,103828.97
2024-01-26T20:56:37.817Z,103824.25
2024-01-26T20:59:05.359Z,103819.84
2024-01-26T21:01:35.392Z,103824.97
2024-01-26T21:04:02.099Z,103826.25
2024-01-26T21:06:30.233Z,103818.56
2024-01-26T21:08:57.779Z,103816.91
2024-01-26T21:11:24.882Z,103811.06
2024-01-26T21:13:51.548Z,103815.09
2024-01-26T21:16:18.460Z,103806.16
2024-01-26T21:18:45.165Z,103814.13
2024-01-26T21:21:11.919Z,103811.53
2024-01-26T21:23:38.558Z,103806.72
2024-01-26T21:26:06.411Z,103799.56
2024-01-26T21:28:33.108Z,103808.34
2024-01-26T21:31:00.348Z,103804.59
2024-01-26T21:33:29.971Z,103801.66
2024-01-26T21:35:56.784Z,103796.16
2024-01-26T21:38:24.801Z,103795.63
2024-01-26T21:40:51.942Z,103788.94
2024-01-26T21:43:19.429Z,103787.41
2024-01-26T21:45:46.245Z,103795.47
2024-01-26T21:48:14.206Z,103803.31
2024-01-26T21:50:41.053Z,103797.78
2024-01-26T21:53:08.117Z,103802.22
2024-01-26T21:55:34.916Z,103799.44
2024-01-26T21:58:01.548Z,103794.09
2024-01-26T22:00:28.453Z,103786.72
2024-01-26T22:02:55.590Z,103780.59
2024-01-26T22:05:22.273Z,103774.44
2024-01-26T22:07:49.027Z,103770.22
2024-01-26T22:10:15.932Z,103773.19
2024-01-26T22:12:42.615Z,103762.72
2024-01-26T22:15:09.606Z,103762.59
2024-01-26T22:17:36.521Z,103754.34
2024-01-26T22:20:03.552Z,103757.88
2024-01-26T22:22:30.144Z,103761.88
2024-01-26T22:24:56.787Z,103764.19
2024-01-26T22:27:23.845Z,103759.59
2024-01-26T22:29:50.502Z,103744.81
2024-01-26T22:32:17.123Z,103744.13
2024-01-26T22:34:44.146Z,103742.91
2024-01-26T22:37:12.873Z,103746.13
2024-01-26T22:39:39.416Z,103748.75
2024-01-26T22:42:06.438Z,103746.56
2024-01-26T22:44:33.067Z,103734.72
2024-01-26T22:46:59.862Z,103732.34
2024-01-26T22:49:26.586Z,103717.91
2024-01-26T22:51:53.257Z,103711.72
2024-01-26T22:54:19.958Z,103715.56
2024-01-26T22:56:46.661Z,103717.38
2024-01-26T22:59:13.434Z,103716.63
2024-01-26T23:01:41.058Z,103725.47
2024-01-26T23:04:07.987Z,103729.72
2024-01-26T23:06:36.075Z,103727.09
2024-01-26T23:09:03.148Z,103726.41
2024-01-26T23:11:32.534Z,103716.97
2024-01-26T23:13:59.179Z,103718.97
2024-01-26T23:16:27.378Z,103707.34
2024-01-26T23:18:54.759Z,103706.63
2024-01-26T23:21:21.912Z,103704.25
2024-01-26T23:23:48.590Z,103702.81
2024-01-26T23:26:15.212Z,103695.22
2024-01-26T23:28:42.150Z,103695.00
2024-01-26T23:31:08.873Z,103703.63
2024-01-26T23:33:35.653Z,103709.03
2024-01-26T23:36:02.323Z,103720.88
2024-01-26T23:38:28.927Z,103720.16
2024-01-26T23:40:55.492Z,103717.41
2024-01-26T23:43:23.697Z,103723.16
2024-01-26T23:45:50.404Z,103721.06
2024-01-26T23:48:17.101Z,103720.28
2024-01-26T23:50:43.868Z,103719.28
2024-01-26T23:53:10.591Z,103730.47
2024-01-26T23:55:38.355Z,103725.19
2024-01-26T23:58:06.539Z,103720.16
